Time;durP1;ratioP1;P1;durP2;ratioP2;P2;SDS_P1;SDS_P2;PMS_P1;PMS_P2;Temp;Humidity;BMP_temperature;BMP_pressure;BME280_temperature;BME280_humidity;BME280_pressure;Samples;Min_cycle;Max_cycle;Signal;HPM_P1;HPM_P2
2021/11/03 00:00:55;;;;;;;31.70;18.13;;;7.30;98.30;;;;;;5052393;28;20108;-75
2021/11/03 00:03:22;;;;;;;27.53;18.23;;;7.30;98.30;;;;;;5052126;28;20055;-75
2021/11/03 00:05:48;;;;;;;29.47;18.23;;;7.30;98.40;;;;;;5052139;28;20362;-75
2021/11/03 00:08:21;;;;;;;31.90;20.37;;;7.30;98.30;;;;;;5053369;28;20040;-75
2021/11/03 00:10:49;;;;;;;30.97;19.70;;;7.30;98.30;;;;;;5053235;28;20029;-75
2021/11/03 00:13:17;;;;;;;34.83;20.33;;;7.20;98.30;;;;;;5035741;28;20026;-74
2021/11/03 00:15:43;;;;;;;28.60;19.07;;;7.20;98.30;;;;;;5053342;28;20440;-74
2021/11/03 00:18:09;;;;;;;31.53;19.80;;;7.10;98.30;;;;;;5053274;28;20053;-74
2021/11/03 00:20:35;;;;;;;28.70;19.40;;;7.10;98.30;;;;;;5053243;28;20067;-74
2021/11/03 00:23:02;;;;;;;33.17;20.90;;;7.10;98.30;;;;;;5052050;28;20028;-74
2021/11/03 00:25:28;;;;;;;32.57;19.37;;;7.00;98.30;;;;;;5051907;28;20033;-74
2021/11/03 00:27:53;;;;;;;30.40;19.50;;;7.00;98.30;;;;;;5051646;28;20106;-75
2021/11/03 00:30:20;;;;;;;29.03;18.80;;;6.90;98.20;;;;;;5068613;28;20028;-75
2021/11/03 00:32:45;;;;;;;32.27;20.47;;;6.90;98.20;;;;;;5035325;28;20025;-75
2021/11/03 00:35:12;;;;;;;32.10;19.60;;;6.90;98.20;;;;;;5052007;28;20032;-75
2021/11/03 00:37:38;;;;;;;30.30;19.70;;;6.80;98.20;;;;;;5051923;28;20493;-75
2021/11/03 00:40:06;;;;;;;30.67;20.57;;;6.90;98.20;;;;;;5035274;28;20033;-75
2021/11/03 00:42:32;;;;;;;33.83;21.27;;;6.70;98.20;;;;;;5053009;28;20032;-75
2021/11/03 00:44:58;;;;;;;29.53;19.83;;;6.70;98.20;;;;;;5053066;28;20029;-75
2021/11/03 00:47:23;;;;;;;33.70;20.23;;;6.70;98.30;;;;;;5035017;28;20443;-75
2021/11/03 00:49:49;;;;;;;33.53;20.97;;;6.70;98.30;;;;;;5051780;28;20025;-75
2021/11/03 00:52:15;;;;;;;31.03;20.00;;;6.60;98.30;;;;;;5051838;28;20021;-75
2021/11/03 00:54:40;;;;;;;34.13;20.10;;;6.60;98.30;;;;;;5052909;28;20021;-75
2021/11/03 00:57:06;;;;;;;32.57;20.57;;;6.50;98.30;;;;;;5051711;28;20330;-75
2021/11/03 00:59:32;;;;;;;36.33;22.50;;;6.60;98.30;;;;;;5053826;28;20112;-75
2021/11/03 01:01:57;;;;;;;38.97;22.40;;;6.50;98.40;;;;;;5055688;28;20123;-76
2021/11/03 01:04:23;;;;;;;32.77;20.40;;;6.50;98.40;;;;;;5056949;28;20029;-76
2021/11/03 01:06:49;;;;;;;36.17;20.37;;;6.50;98.40;;;;;;5055420;28;20021;-75
2021/11/03 01:09:14;;;;;;;45.90;22.93;;;6.50;98.40;;;;;;5055600;28;20056;-75
2021/11/03 01:11:40;;;;;;;56.27;21.77;;;6.40;98.50;;;;;;5056743;28;20060;-76
2021/11/03 01:14:07;;;;;;;99.23;21.07;;;6.50;98.50;;;;;;5055547;28;20480;-76
2021/11/03 01:16:33;;;;;;;119.53;22.00;;;6.40;98.50;;;;;;5055618;28;20029;-76
2021/11/03 01:19:00;;;;;;;73.93;21.17;;;6.40;98.60;;;;;;5056680;28;20033;-76
2021/11/03 01:21:25;;;;;;;119.93;21.90;;;6.40;98.60;;;;;;5055303;28;20047;-76
2021/11/03 01:23:52;;;;;;;88.47;20.50;;;6.40;98.70;;;;;;5055415;28;20486;-75
2021/11/03 01:26:17;;;;;;;81.07;20.40;;;6.40;98.70;;;;;;5056396;28;20117;-76
2021/11/03 01:28:43;;;;;;;111.30;20.17;;;6.50;98.70;;;;;;5055026;28;20140;-76
2021/11/03 01:31:10;;;;;;;57.03;17.80;;;6.50;98.80;;;;;;5054969;28;20021;-76
2021/11/03 01:33:35;;;;;;;49.43;18.73;;;6.30;98.70;;;;;;5055065;28;20025;-76
2021/11/03 01:36:01;;;;;;;58.93;17.33;;;6.30;98.70;;;;;;5056391;28;20025;-75
2021/11/03 01:38:26;;;;;;;107.90;18.17;;;6.30;98.70;;;;;;5038343;28;20060;-75
2021/11/03 01:40:52;;;;;;;55.97;18.17;;;6.20;98.60;;;;;;5056134;28;20071;-75
2021/11/03 01:43:47;;;;;;;40.93;17.97;;;6.20;98.60;;;;;;5054905;28;20032;-75
2021/11/03 01:46:18;;;;;;;39.65;17.80;;;6.10;98.60;;;;;;5056178;28;20056;-75
2021/11/03 01:48:44;;;;;;;45.80;18.13;;;6.10;98.70;;;;;;5054748;28;20078;-75
2021/11/03 01:51:14;;;;;;;45.60;18.00;;;6.10;98.70;;;;;;5038066;28;20029;-76
2021/11/03 01:53:40;;;;;;;39.50;18.33;;;6.00;98.60;;;;;;5056447;28;20060;-76
2021/11/03 01:56:09;;;;;;;39.57;18.33;;;6.00;98.60;;;;;;5055806;28;20113;-75
2021/11/03 01:59:24;;;;;;;36.97;18.23;;;6.00;98.60;;;;;;5055902;28;20108;-75
2021/11/03 02:01:50;;;;;;;41.22;16.60;;;6.00;98.70;;;;;;5055300;28;20036;-76
2021/11/03 02:04:16;;;;;;;39.67;17.53;;;5.90;98.60;;;;;;5055667;28;20424;-75
2021/11/03 02:06:43;;;;;;;39.97;17.40;;;5.90;98.60;;;;;;5054393;28;20376;-76
2021/11/03 02:09:09;;;;;;;67.87;17.43;;;5.90;98.70;;;;;;5037778;28;20060;-75
2021/11/03 02:11:35;;;;;;;60.63;17.70;;;5.90;98.70;;;;;;5054779;28;20029;-75
2021/11/03 02:14:04;;;;;;;57.57;16.77;;;5.80;98.70;;;;;;5054330;28;20028;-75
2021/11/03 02:16:32;;;;;;;62.30;16.97;;;5.90;98.80;;;;;;5054495;28;20049;-75
2021/11/03 02:18:58;;;;;;;53.70;16.40;;;5.80;98.80;;;;;;5054117;28;20017;-75
2021/11/03 02:21:55;;;;;;;41.80;16.07;;;5.80;98.80;;;;;;5054173;28;20029;-75
2021/11/03 02:24:31;;;;;;;49.07;18.73;;;5.80;98.80;;;;;;5054618;28;20094;-75
2021/11/03 02:26:59;;;;;;;37.07;16.60;;;5.80;98.70;;;;;;5050961;28;20029;-76
2021/11/03 02:29:25;;;;;;;50.27;16.53;;;5.80;98.70;;;;;;5054468;28;20383;-76
2021/11/03 02:31:57;;;;;;;32.07;16.17;;;5.80;98.60;;;;;;5053740;28;20052;-76
2021/11/03 02:34:26;;;;;;;27.90;16.27;;;5.70;98.60;;;;;;5054923;28;20473;-76
2021/11/03 02:37:22;;;;;;;44.13;17.10;;;5.70;98.70;;;;;;5053768;28;20031;-76
2021/11/03 02:39:53;;;;;;;41.07;17.10;;;5.70;98.70;;;;;;5054521;28;20032;-76
2021/11/03 02:42:20;;;;;;;46.13;16.33;;;5.60;98.70;;;;;;5055087;28;20095;-76
2021/11/03 02:44:47;;;;;;;44.40;17.30;;;5.60;98.80;;;;;;5053647;28;20090;-76
2021/11/03 02:47:14;;;;;;;44.37;16.80;;;5.60;98.80;;;;;;5053643;28;20033;-76
2021/11/03 02:49:40;;;;;;;31.53;15.93;;;5.60;98.80;;;;;;5048089;28;20109;-76
2021/11/03 02:52:21;;;;;;;45.30;17.77;;;5.50;98.80;;;;;;5051140;28;20029;-75
2021/11/03 02:54:47;;;;;;;36.17;15.10;;;5.50;98.80;;;;;;5034755;28;20029;-75
2021/11/03 02:57:13;;;;;;;31.80;15.20;;;5.60;98.80;;;;;;5016670;28;20129;-76
2021/11/03 02:59:39;;;;;;;40.93;15.83;;;5.50;98.80;;;;;;5034735;28;20100;-75
2021/11/03 03:02:06;;;;;;;46.70;16.03;;;5.50;98.80;;;;;;5034487;28;20029;-75
2021/11/03 03:04:42;;;;;;;29.93;16.73;;;5.50;98.80;;;;;;5033508;28;20063;-75
2021/11/03 03:07:09;;;;;;;32.10;16.33;;;5.40;98.80;;;;;;5034514;28;20029;-75
2021/11/03 03:09:35;;;;;;;42.80;17.63;;;5.50;98.90;;;;;;5033428;28;20029;-74
2021/11/03 03:12:04;;;;;;;28.07;15.83;;;5.50;98.90;;;;;;5033254;28;20029;-74
2021/11/03 03:14:33;;;;;;;38.73;17.17;;;5.50;98.90;;;;;;5033366;28;20036;-74
2021/11/03 03:16:58;;;;;;;42.13;16.67;;;5.50;98.90;;;;;;5034522;28;20497;-74
2021/11/03 03:19:24;;;;;;;40.00;16.70;;;5.50;98.90;;;;;;5033209;28;20021;-74
2021/11/03 03:21:50;;;;;;;38.20;16.10;;;5.40;98.90;;;;;;5033270;28;20029;-74
2021/11/03 03:24:17;;;;;;;45.57;17.03;;;5.50;99.00;;;;;;5033132;28;20091;-74
2021/11/03 03:26:43;;;;;;;38.03;15.73;;;5.40;99.00;;;;;;5032972;28;20030;-74
2021/11/03 03:29:10;;;;;;;59.23;16.37;;;5.50;99.00;;;;;;5016225;28;20049;-74
2021/11/03 03:31:36;;;;;;;37.23;15.33;;;5.50;99.30;;;;;;5034390;28;20056;-74
2021/11/03 03:34:06;;;;;;;30.27;15.23;;;5.50;99.00;;;;;;5034189;28;20021;-74
2021/11/03 03:36:32;;;;;;;37.67;16.63;;;5.50;99.20;;;;;;5047825;28;20024;-75
2021/11/03 03:38:58;;;;;;;40.80;15.57;;;5.50;99.10;;;;;;5035151;28;20033;-74
2021/11/03 03:41:26;;;;;;;35.90;16.30;;;5.50;99.10;;;;;;5036639;28;20040;-74
2021/11/03 03:43:52;;;;;;;36.77;17.40;;;5.50;99.20;;;;;;5052765;28;20033;-74
2021/11/03 03:46:18;;;;;;;29.27;16.47;;;5.50;99.20;;;;;;5053810;28;20436;-75
2021/11/03 03:48:44;;;;;;;51.43;16.47;;;5.50;99.20;;;;;;5054391;28;20577;-75
2021/11/03 03:51:11;;;;;;;41.07;17.17;;;5.50;99.20;;;;;;5054180;28;20108;-75
2021/11/03 03:53:38;;;;;;;37.50;17.53;;;5.50;99.20;;;;;;5052859;28;20111;-75
2021/11/03 03:56:04;;;;;;;43.67;16.63;;;5.50;99.20;;;;;;5052486;28;20031;-74
2021/11/03 03:58:30;;;;;;;44.90;16.07;;;5.50;99.30;;;;;;5052800;28;20028;-74
2021/11/03 04:00:56;;;;;;;31.47;15.67;;;5.50;99.30;;;;;;5053977;28;20029;-74
2021/11/03 04:03:23;;;;;;;53.73;15.87;;;5.50;99.30;;;;;;5052737;28;20493;-75
2021/11/03 04:05:50;;;;;;;40.63;16.83;;;5.50;99.30;;;;;;5052548;28;20028;-75
2021/11/03 04:08:19;;;;;;;40.73;15.70;;;5.60;99.40;;;;;;5052251;28;20040;-75
2021/11/03 04:10:46;;;;;;;32.53;16.47;;;5.60;99.40;;;;;;5052381;28;20021;-75
2021/11/03 04:13:12;;;;;;;33.50;16.60;;;5.60;99.40;;;;;;5053723;28;20029;-75
2021/11/03 04:15:38;;;;;;;34.67;15.83;;;5.60;99.40;;;;;;5053853;28;20389;-76
2021/11/03 04:18:04;;;;;;;34.23;15.57;;;5.60;99.40;;;;;;5052372;28;20017;-75
2021/11/03 04:20:30;;;;;;;37.57;15.87;;;5.60;99.40;;;;;;5053616;28;20108;-75
2021/11/03 04:22:55;;;;;;;49.17;14.77;;;5.60;99.40;;;;;;5052729;28;20032;-75
2021/11/03 04:25:21;;;;;;;34.47;14.43;;;5.60;99.40;;;;;;5052189;28;20071;-75
2021/11/03 04:27:47;;;;;;;41.63;15.20;;;5.60;99.30;;;;;;5053131;28;20048;-74
2021/11/03 04:30:16;;;;;;;39.97;15.37;;;5.60;99.40;;;;;;5052300;28;20536;-75
2021/11/03 04:32:42;;;;;;;37.47;15.37;;;5.60;99.40;;;;;;5053448;28;20100;-76
2021/11/03 04:35:08;;;;;;;35.97;15.57;;;5.60;99.40;;;;;;5053116;28;20473;-74
2021/11/03 04:37:35;;;;;;;34.70;15.03;;;5.60;99.40;;;;;;5052103;28;20036;-74
2021/11/03 04:40:01;;;;;;;38.87;15.07;;;5.60;99.40;;;;;;5052046;28;20119;-75
2021/11/03 04:42:26;;;;;;;40.53;15.27;;;5.60;99.40;;;;;;5035396;28;20063;-75
2021/11/03 04:44:52;;;;;;;36.77;16.80;;;5.60;99.50;;;;;;5053310;28;20021;-75
2021/11/03 04:47:18;;;;;;;28.10;13.87;;;5.60;99.50;;;;;;5053153;28;20441;-75
2021/11/03 04:49:43;;;;;;;37.73;15.60;;;5.60;99.60;;;;;;5052081;28;20147;-75
2021/11/03 04:52:09;;;;;;;30.40;15.20;;;5.70;99.60;;;;;;5052355;28;20032;-75
2021/11/03 04:54:35;;;;;;;23.73;15.23;;;5.60;99.60;;;;;;5053206;28;20172;-75
2021/11/03 04:57:02;;;;;;;34.47;15.03;;;5.70;99.50;;;;;;5053215;28;20107;-75
2021/11/03 04:59:27;;;;;;;44.10;15.17;;;5.70;99.50;;;;;;5052213;28;20036;-76
2021/11/03 05:01:53;;;;;;;54.50;15.77;;;5.70;99.50;;;;;;5053206;28;20025;-76
2021/11/03 05:04:19;;;;;;;41.43;15.27;;;5.70;99.50;;;;;;5035315;28;20025;-76
2021/11/03 05:06:48;;;;;;;46.23;15.63;;;5.70;99.50;;;;;;5053281;28;20029;-76
2021/11/03 05:09:14;;;;;;;58.40;15.20;;;5.70;99.60;;;;;;5052425;28;20091;-76
2021/11/03 05:11:40;;;;;;;43.93;15.87;;;5.70;99.50;;;;;;5053247;28;20504;-75
2021/11/03 05:14:05;;;;;;;44.17;14.83;;;5.80;99.50;;;;;;5053317;28;20033;-75
2021/11/03 05:16:31;;;;;;;48.63;15.90;;;5.80;99.40;;;;;;5051003;28;20029;-75
2021/11/03 05:18:57;;;;;;;38.07;16.57;;;5.70;99.20;;;;;;5051731;28;20037;-75
2021/11/03 05:21:23;;;;;;;59.00;17.53;;;5.80;99.20;;;;;;5053125;28;20091;-75
2021/11/03 05:23:49;;;;;;;52.03;16.23;;;5.80;99.10;;;;;;5051693;28;20397;-75
2021/11/03 05:26:17;;;;;;;52.23;15.90;;;5.70;99.10;;;;;;5051827;28;20087;-75
2021/11/03 05:28:46;;;;;;;46.53;15.63;;;5.70;99.20;;;;;;5051684;28;20094;-75
2021/11/03 05:31:11;;;;;;;39.87;15.60;;;5.70;99.20;;;;;;5051617;28;20025;-75
2021/11/03 05:33:37;;;;;;;51.67;15.90;;;5.70;99.20;;;;;;5034162;28;20489;-75
2021/11/03 05:36:03;;;;;;;51.53;14.23;;;5.70;99.20;;;;;;5052722;28;20098;-75
2021/11/03 05:38:29;;;;;;;64.43;15.33;;;5.70;99.30;;;;;;5052144;28;20033;-75
2021/11/03 05:40:54;;;;;;;60.13;16.03;;;5.70;99.30;;;;;;5051444;28;20068;-73
2021/11/03 05:43:20;;;;;;;68.87;16.20;;;5.80;99.40;;;;;;5050753;28;20568;-74
2021/11/03 05:45:46;;;;;;;68.97;14.27;;;5.70;99.30;;;;;;5050235;28;20086;-74
2021/11/03 05:48:13;;;;;;;75.27;14.10;;;5.60;99.30;;;;;;5054836;28;20083;-74
2021/11/03 05:50:39;;;;;;;62.87;15.37;;;5.70;99.30;;;;;;5055971;28;20359;-74
2021/11/03 05:53:05;;;;;;;76.80;16.10;;;5.60;99.30;;;;;;5054713;28;20404;-73
2021/11/03 05:55:31;;;;;;;54.73;14.57;;;5.70;99.60;;;;;;5055045;28;20412;-74
2021/11/03 05:57:57;;;;;;;45.00;14.83;;;5.70;99.40;;;;;;5070877;28;20132;-73
2021/11/03 06:00:29;;;;;;;41.73;14.87;;;5.70;99.40;;;;;;5055234;28;20033;-73
2021/11/03 06:02:55;;;;;;;57.97;14.17;;;5.70;99.30;;;;;;5056050;28;20484;-73
2021/11/03 06:05:22;;;;;;;63.67;15.87;;;5.70;99.30;;;;;;5054741;28;20040;-73
2021/11/03 06:07:56;;;;;;;50.87;14.47;;;5.70;99.40;;;;;;5054769;28;20363;-73
2021/11/03 06:10:32;;;;;;;49.57;14.83;;;5.70;99.40;;;;;;5056112;28;20031;-73
2021/11/03 06:12:58;;;;;;;46.13;14.90;;;5.70;99.40;;;;;;5055772;28;20470;-73
2021/11/03 06:15:27;;;;;;;47.47;14.53;;;5.70;99.40;;;;;;5054627;28;20094;-73
2021/11/03 06:17:54;;;;;;;27.53;14.83;;;5.70;99.40;;;;;;5055839;28;20032;-73
2021/11/03 06:20:20;;;;;;;33.43;16.53;;;5.70;99.40;;;;;;5033732;28;20061;-73
2021/11/03 06:22:46;;;;;;;44.20;15.97;;;5.70;99.40;;;;;;5036369;28;20029;-72
2021/11/03 06:25:14;;;;;;;41.80;16.33;;;5.80;99.40;;;;;;5048876;28;20033;-73
2021/11/03 06:27:40;;;;;;;45.70;16.07;;;5.70;99.40;;;;;;5044659;28;20366;-73
2021/11/03 06:30:08;;;;;;;51.97;15.83;;;5.70;99.30;;;;;;5052612;28;20028;-73
2021/11/03 06:32:35;;;;;;;42.20;15.37;;;5.70;99.30;;;;;;5050758;28;20024;-73
2021/11/03 06:35:02;;;;;;;40.43;16.63;;;5.80;99.30;;;;;;5053131;28;20439;-74
2021/11/03 06:37:28;;;;;;;50.67;16.47;;;5.70;99.30;;;;;;5053538;28;20078;-73
2021/11/03 06:39:54;;;;;;;52.23;15.70;;;5.70;99.30;;;;;;5054264;28;20029;-74
2021/11/03 06:42:19;;;;;;;47.00;14.70;;;5.70;99.30;;;;;;5037562;28;20029;-74
2021/11/03 06:44:45;;;;;;;48.83;15.27;;;5.70;99.30;;;;;;5054043;28;20032;-74
2021/11/03 06:47:11;;;;;;;45.83;15.27;;;5.70;99.30;;;;;;5055241;28;20029;-74
2021/11/03 06:49:36;;;;;;;43.57;15.70;;;5.70;99.30;;;;;;5055517;28;20494;-74
2021/11/03 06:52:03;;;;;;;42.87;14.57;;;5.70;99.30;;;;;;5053799;28;20334;-74
2021/11/03 06:54:29;;;;;;;58.53;15.07;;;5.80;99.40;;;;;;5054893;28;20029;-74
2021/11/03 06:56:55;;;;;;;44.53;14.57;;;5.70;99.30;;;;;;5053427;28;20029;-74
2021/11/03 06:59:21;;;;;;;33.13;13.67;;;5.80;99.40;;;;;;5055050;28;20028;-74
2021/11/03 07:01:47;;;;;;;31.67;15.47;;;5.80;99.40;;;;;;5037426;28;20082;-74
2021/11/03 07:04:13;;;;;;;37.47;14.23;;;5.80;99.50;;;;;;5053979;28;20025;-74
2021/11/03 07:06:40;;;;;;;40.57;14.27;;;5.90;99.50;;;;;;5055376;28;20029;-74
2021/11/03 07:09:06;;;;;;;55.43;13.73;;;5.80;99.50;;;;;;5053502;28;20381;-74
2021/11/03 07:11:32;;;;;;;30.40;15.20;;;5.80;99.50;;;;;;5053365;28;20465;-74
2021/11/03 07:13:58;;;;;;;33.70;14.80;;;5.80;99.50;;;;;;5054332;28;20025;-73
2021/11/03 07:16:24;;;;;;;31.33;13.63;;;5.90;99.60;;;;;;5052337;28;20373;-73
2021/11/03 07:18:50;;;;;;;27.53;15.17;;;5.90;99.60;;;;;;5036328;28;20029;-73
2021/11/03 07:21:16;;;;;;;24.73;14.53;;;5.90;99.50;;;;;;5053854;28;20417;-73
2021/11/03 07:23:41;;;;;;;28.87;14.47;;;6.00;99.50;;;;;;5052682;28;20031;-73
2021/11/03 07:26:07;;;;;;;33.17;14.17;;;6.00;99.50;;;;;;5054085;28;20029;-73
2021/11/03 07:28:36;;;;;;;39.97;14.30;;;5.90;99.50;;;;;;5052120;28;20080;-73
2021/11/03 07:31:03;;;;;;;30.00;14.10;;;6.10;99.50;;;;;;5036262;28;20028;-73
2021/11/03 07:33:29;;;;;;;27.40;14.20;;;6.00;99.40;;;;;;5053765;28;20021;-73
2021/11/03 07:35:55;;;;;;;69.47;15.37;;;6.00;99.70;;;;;;5052214;28;20025;-73
2021/11/03 07:38:21;;;;;;;24.43;14.37;;;6.10;99.50;;;;;;5052727;28;20032;-73
2021/11/03 07:40:50;;;;;;;44.93;14.83;;;6.10;99.50;;;;;;5035737;28;20032;-73
2021/11/03 07:43:18;;;;;;;42.70;15.33;;;6.10;99.50;;;;;;5052382;28;20508;-74
2021/11/03 07:45:45;;;;;;;32.53;16.90;;;6.10;99.50;;;;;;5049703;28;20419;-74
2021/11/03 07:48:11;;;;;;;31.07;16.33;;;6.20;99.50;;;;;;5053463;28;20078;-74
2021/11/03 07:50:45;;;;;;;35.30;16.90;;;6.20;99.50;;;;;;5050304;28;20047;-73
2021/11/03 07:53:12;;;;;;;33.27;17.03;;;6.30;99.40;;;;;;5051911;28;20401;-76
2021/11/03 07:55:42;;;;;;;29.63;16.57;;;6.30;99.40;;;;;;5052795;28;20028;-77
2021/11/03 07:58:13;;;;;;;29.77;17.27;;;6.40;99.40;;;;;;5052393;28;20023;-76
2021/11/03 08:00:38;;;;;;;28.77;17.23;;;6.40;99.40;;;;;;5053475;28;20025;-77
2021/11/03 08:03:04;;;;;;;32.40;17.83;;;6.40;99.40;;;;;;5052288;28;20029;-77
2021/11/03 08:05:30;;;;;;;36.07;17.90;;;6.40;99.40;;;;;;5053140;28;20485;-77
2021/11/03 08:07:58;;;;;;;29.53;17.47;;;6.50;99.30;;;;;;5053468;28;20033;-77
2021/11/03 08:10:25;;;;;;;32.70;18.80;;;6.50;99.40;;;;;;5052786;28;20381;-76
2021/11/03 08:12:53;;;;;;;33.53;17.47;;;6.60;99.40;;;;;;5052252;28;20108;-77
2021/11/03 08:15:19;;;;;;;39.20;18.30;;;6.60;99.40;;;;;;5052299;28;20021;-77
2021/11/03 08:17:45;;;;;;;29.60;17.30;;;6.60;99.30;;;;;;5053470;28;20021;-77
2021/11/03 08:20:17;;;;;;;47.80;19.30;;;6.70;99.30;;;;;;5053432;28;20393;-77
2021/11/03 08:22:44;;;;;;;33.80;18.87;;;6.70;99.20;;;;;;5053165;28;20029;-77
2021/11/03 08:25:09;;;;;;;40.17;20.07;;;6.70;99.20;;;;;;5052289;28;20040;-76
2021/11/03 08:27:36;;;;;;;31.03;18.03;;;6.70;99.20;;;;;;5052812;28;20056;-77
2021/11/03 08:30:05;;;;;;;45.70;18.50;;;6.80;99.20;;;;;;5052239;28;20108;-77
2021/11/03 08:32:36;;;;;;;26.97;17.97;;;6.80;99.20;;;;;;5053237;28;20049;-77
2021/11/03 08:35:05;;;;;;;46.03;18.47;;;6.80;99.20;;;;;;5053438;28;20021;-77
2021/11/03 08:37:34;;;;;;;37.23;19.03;;;6.80;99.20;;;;;;5053288;28;20055;-77
2021/11/03 08:40:03;;;;;;;34.17;19.20;;;6.80;99.20;;;;;;5053066;28;20029;-78
2021/11/03 08:42:29;;;;;;;31.30;18.80;;;6.90;99.30;;;;;;5053232;28;20435;-78
2021/11/03 08:44:55;;;;;;;43.97;19.97;;;6.90;99.60;;;;;;5052155;28;20048;-77
2021/11/03 08:47:21;;;;;;;48.77;20.20;;;6.90;99.30;;;;;;5051967;28;20029;-76
2021/11/03 08:49:47;;;;;;;33.97;19.43;;;7.00;99.40;;;;;;5051827;28;20074;-77
2021/11/03 08:52:13;;;;;;;33.93;19.23;;;7.10;99.50;;;;;;5052927;28;20617;-78
2021/11/03 08:54:45;;;;;;;38.83;20.50;;;7.00;99.50;;;;;;5053017;28;20036;-77
2021/11/03 08:57:11;;;;;;;37.03;18.77;;;7.10;99.50;;;;;;5053106;28;20428;-77
2021/11/03 08:59:37;;;;;;;40.53;19.63;;;7.20;99.60;;;;;;5052838;28;20112;-77
2021/11/03 09:02:03;;;;;;;37.37;19.87;;;7.20;99.70;;;;;;5051764;28;20053;-77
2021/11/03 09:04:31;;;;;;;56.83;20.23;;;7.30;99.70;;;;;;5051843;28;20032;-77
2021/11/03 09:06:57;;;;;;;59.83;19.83;;;7.30;99.70;;;;;;5052973;28;20029;-77
2021/11/03 09:09:22;;;;;;;40.20;18.27;;;7.30;99.70;;;;;;5050414;28;20083;-77
2021/11/03 09:11:51;;;;;;;44.23;19.50;;;7.40;99.70;;;;;;5051297;28;20036;-76
2021/11/03 09:14:18;;;;;;;38.60;18.97;;;7.50;99.70;;;;;;5051399;28;20112;-77
2021/11/03 09:16:44;;;;;;;49.53;21.20;;;7.50;99.70;;;;;;5050891;28;20095;-77
2021/11/03 09:19:09;;;;;;;40.40;20.80;;;7.60;99.70;;;;;;5050959;28;20037;-77
2021/11/03 09:21:35;;;;;;;37.57;19.27;;;7.60;99.60;;;;;;5054205;28;20033;-77
2021/11/03 09:24:01;;;;;;;32.83;20.33;;;7.70;99.60;;;;;;5056173;28;20032;-77
2021/11/03 09:26:26;;;;;;;26.00;18.30;;;7.70;99.60;;;;;;5056188;28;20032;-77
2021/11/03 09:28:52;;;;;;;33.17;20.07;;;7.80;99.60;;;;;;5056226;28;20502;-76
2021/11/03 09:31:18;;;;;;;31.57;19.77;;;7.80;99.60;;;;;;5038579;28;20504;-75
2021/11/03 09:33:44;;;;;;;31.67;19.67;;;7.80;99.50;;;;;;5038458;28;20178;-74
2021/11/03 09:36:18;;;;;;;33.13;19.60;;;7.90;99.60;;;;;;5055086;28;20472;-75
2021/11/03 09:38:45;;;;;;;37.67;19.07;;;8.00;99.60;;;;;;5056311;28;20027;-75
2021/11/03 09:41:34;;;;;;;36.27;19.73;;;8.00;99.50;;;;;;5055029;28;20017;-75
2021/11/03 09:44:12;;;;;;;30.90;19.30;;;8.00;99.50;;;;;;5056189;28;20108;-74
2021/11/03 09:46:42;;;;;;;28.60;18.13;;;8.10;99.60;;;;;;5056422;28;20028;-78
2021/11/03 09:49:23;;;;;;;30.23;20.37;;;8.10;99.60;;;;;;5055985;28;20025;-78
2021/11/03 09:52:02;;;;;;;29.53;19.80;;;8.20;99.50;;;;;;5054740;28;20020;-79
2021/11/03 09:54:36;;;;;;;35.93;20.63;;;8.30;99.40;;;;;;5056206;28;20017;-78
2021/11/03 09:57:05;;;;;;;33.58;20.63;;;8.30;99.30;;;;;;5055968;28;20017;-78
2021/11/03 09:59:40;;;;;;;32.47;20.07;;;8.30;99.20;;;;;;5056007;28;20025;-79
2021/11/03 10:02:37;;;;;;;39.97;24.40;;;8.30;99.10;;;;;;5054826;28;20017;-78
2021/11/03 10:05:08;;;;;;;38.67;22.47;;;8.30;99.10;;;;;;5054573;28;20033;-78
2021/11/03 10:07:45;;;;;;;34.07;22.03;;;8.40;99.00;;;;;;5055496;28;20366;-77
2021/11/03 10:10:18;;;;;;;33.17;22.10;;;8.40;99.10;;;;;;5055809;28;20381;-77
2021/11/03 10:12:43;;;;;;;35.70;22.50;;;8.50;99.20;;;;;;5053863;28;20123;-76
2021/11/03 10:15:09;;;;;;;32.33;21.57;;;8.50;99.20;;;;;;5054571;28;20075;-76
2021/11/03 10:17:35;;;;;;;30.90;21.40;;;8.70;99.20;;;;;;5055704;28;20041;-76
2021/11/03 10:20:18;;;;;;;32.83;21.77;;;8.70;99.10;;;;;;5055687;28;20037;-77
2021/11/03 10:22:44;;;;;;;28.60;20.07;;;8.80;99.20;;;;;;5055207;28;20473;-77
2021/11/03 10:25:24;;;;;;;30.47;21.07;;;8.90;99.20;;;;;;5048229;28;20068;-77
2021/11/03 10:28:01;;;;;;;26.57;19.00;;;9.00;99.20;;;;;;5046519;28;20516;-77
2021/11/03 10:30:29;;;;;;;26.43;17.93;;;9.10;99.10;;;;;;5055328;28;20025;-77
2021/11/03 10:32:56;;;;;;;26.40;17.17;;;9.20;99.10;;;;;;5053785;28;20024;-77
2021/11/03 10:35:38;;;;;;;25.47;17.37;;;9.30;99.10;;;;;;5054348;28;20025;-77
2021/11/03 10:38:16;;;;;;;24.07;16.20;;;9.40;99.10;;;;;;5055539;28;20049;-77
2021/11/03 10:40:47;;;;;;;23.47;16.30;;;9.50;99.10;;;;;;5055988;28;20021;-77
2021/11/03 10:43:24;;;;;;;22.10;16.23;;;9.60;99.10;;;;;;5054159;28;20477;-77
2021/11/03 10:46:18;;;;;;;22.83;16.03;;;9.80;99.10;;;;;;5054480;28;20028;-77
2021/11/03 10:49:08;;;;;;;24.65;14.95;;;9.80;99.00;;;;;;5054742;28;20114;-77
2021/11/03 10:51:38;;;;;;;21.60;14.77;;;9.90;98.90;;;;;;5055273;28;20032;-76
2021/11/03 10:54:17;;;;;;;21.80;14.40;;;10.10;98.90;;;;;;5055093;28;20021;-77
2021/11/03 10:56:57;;;;;;;19.98;14.45;;;10.20;98.90;;;;;;5055209;28;20134;-77
2021/11/03 10:59:31;;;;;;;20.27;14.65;;;10.30;98.80;;;;;;5055103;28;20078;-77
2021/11/03 11:02:23;;;;;;;19.48;14.15;;;10.40;98.70;;;;;;5055126;28;20082;-77
2021/11/03 11:04:50;;;;;;;21.17;14.35;;;10.50;98.60;;;;;;5054202;28;20136;-76
2021/11/03 11:07:31;;;;;;;18.58;14.95;;;10.60;98.60;;;;;;5054653;28;20021;-76
2021/11/03 11:10:20;;;;;;;24.00;14.68;;;10.70;98.50;;;;;;5052781;28;20024;-77
2021/11/03 11:12:48;;;;;;;19.88;15.10;;;10.80;98.40;;;;;;5054844;28;20028;-77
2021/11/03 11:15:14;;;;;;;21.33;14.38;;;10.90;98.40;;;;;;5053123;28;20009;-76
2021/11/03 11:17:51;;;;;;;21.52;15.60;;;11.00;98.30;;;;;;5054232;28;20108;-76
2021/11/03 11:20:49;;;;;;;23.30;14.68;;;11.10;98.00;;;;;;5052073;28;20017;-76
2021/11/03 11:23:42;;;;;;;23.55;15.85;;;11.20;97.90;;;;;;5050032;28;20025;-76
2021/11/03 11:26:07;;;;;;;19.25;14.30;;;11.20;97.70;;;;;;5052881;28;20029;-75
2021/11/03 11:28:45;;;;;;;23.98;15.65;;;11.30;97.50;;;;;;5053435;28;20127;-76
2021/11/03 11:31:18;;;;;;;23.20;15.05;;;11.40;97.40;;;;;;5052472;28;20021;-76
2021/11/03 11:34:16;;;;;;;21.75;14.90;;;11.40;97.20;;;;;;5052892;28;20036;-75
2021/11/03 11:36:42;;;;;;;22.40;15.52;;;11.50;96.90;;;;;;5052559;28;20507;-75
2021/11/03 11:39:13;;;;;;;20.30;15.32;;;11.50;96.80;;;;;;5054247;28;20103;-74
2021/11/03 11:42:06;;;;;;;21.33;14.95;;;11.60;96.60;;;;;;5054104;28;20156;-76
2021/11/03 11:44:35;;;;;;;20.35;14.80;;;11.70;96.60;;;;;;5052895;28;20033;-75
2021/11/03 11:47:06;;;;;;;20.90;14.18;;;11.80;96.50;;;;;;5054313;28;20081;-75
2021/11/03 11:49:41;;;;;;;19.13;13.10;;;11.80;96.40;;;;;;5054482;28;20103;-75
2021/11/03 11:52:09;;;;;;;19.33;13.52;;;11.80;96.30;;;;;;5054272;28;20044;-75
2021/11/03 11:54:38;;;;;;;18.45;13.02;;;11.90;96.20;;;;;;5052677;28;20025;-75
2021/11/03 11:57:13;;;;;;;20.25;14.65;;;12.00;96.10;;;;;;5054034;28;20100;-74
2021/11/03 12:00:00;;;;;;;20.85;15.32;;;12.00;96.00;;;;;;5052358;28;20028;-76
2021/11/03 12:02:29;;;;;;;23.23;15.95;;;12.00;95.90;;;;;;5052149;28;20071;-77
2021/11/03 12:05:14;;;;;;;22.30;16.80;;;12.10;95.80;;;;;;5053463;28;20017;-77
2021/11/03 12:07:41;;;;;;;19.60;14.68;;;12.10;95.60;;;;;;5053563;28;20017;-77
2021/11/03 12:10:26;;;;;;;23.02;15.80;;;12.10;95.50;;;;;;5052428;28;20045;-77
2021/11/03 12:13:03;;;;;;;22.02;15.77;;;12.10;95.40;;;;;;5053654;28;20020;-77
2021/11/03 12:16:05;;;;;;;22.95;16.17;;;12.10;95.20;;;;;;5052196;28;20024;-77
2021/11/03 12:18:33;;;;;;;20.42;14.93;;;12.20;95.10;;;;;;5051675;28;20033;-74
2021/11/03 12:20:59;;;;;;;23.00;16.48;;;12.20;94.90;;;;;;5053143;28;20068;-74
2021/11/03 12:23:55;;;;;;;23.48;16.63;;;12.20;94.80;;;;;;5053775;28;20028;-74
2021/11/03 12:26:30;;;;;;;20.23;14.38;;;12.20;94.60;;;;;;5052948;28;20091;-74
2021/11/03 12:29:22;;;;;;;18.83;14.27;;;12.20;94.60;;;;;;5053417;28;20110;-73
2021/11/03 12:31:52;;;;;;;21.35;15.90;;;12.10;94.40;;;;;;5051643;28;20025;-74
2021/11/03 12:34:23;;;;;;;22.63;15.15;;;12.10;94.40;;;;;;5052310;28;20036;-73
2021/11/03 12:36:48;;;;;;;20.65;14.27;;;12.10;94.40;;;;;;5052639;28;20016;-74
2021/11/03 12:39:29;;;;;;;19.58;13.57;;;12.10;94.50;;;;;;5052301;28;20028;-74
2021/11/03 12:41:58;;;;;;;19.17;14.10;;;12.00;94.50;;;;;;5052351;28;20495;-74
2021/11/03 12:44:40;;;;;;;20.65;14.27;;;12.10;94.60;;;;;;5053421;28;20037;-74
2021/11/03 12:47:23;;;;;;;20.48;13.00;;;12.10;94.60;;;;;;5053375;28;20033;-74